Time;durP1;ratioP1;P1;durP2;ratioP2;P2;SDS_P1;SDS_P2;PMS_P1;PMS_P2;Temp;Humidity;BMP_temperature;BMP_pressure;BME280_temperature;BME280_humidity;BME280_pressure;Samples;Min_cycle;Max_cycle;Signal;HPM_P1;HPM_P2
2023/01/07 00:01:03;;;;;;;133.85;127.80;;;11.70;99.10;;;;;;5027036;28;20037;-78
2023/01/07 00:03:29;;;;;;;135.18;129.27;;;11.70;99.10;;;;;;5027023;28;20030;-78
2023/01/07 00:06:01;;;;;;;131.85;126.05;;;11.70;98.90;;;;;;5027160;28;20029;-78
2023/01/07 00:08:32;;;;;;;132.40;126.60;;;11.50;98.50;;;;;;5028466;28;20053;-78
2023/01/07 00:11:02;;;;;;;133.23;127.43;;;11.20;98.50;;;;;;5026890;28;20029;-78
2023/01/07 00:13:28;;;;;;;131.05;125.28;;;11.00;98.60;;;;;;5028159;28;20313;-79
2023/01/07 00:15:58;;;;;;;129.98;124.28;;;10.70;98.60;;;;;;5026814;28;20508;-78
2023/01/07 00:18:24;;;;;;;130.98;125.20;;;10.60;98.70;;;;;;5026820;28;20119;-78
2023/01/07 00:20:49;;;;;;;127.72;122.13;;;10.40;98.70;;;;;;5010317;28;20068;-77
2023/01/07 00:23:15;;;;;;;129.05;123.45;;;10.30;98.80;;;;;;5027102;28;20061;-77
2023/01/07 00:25:41;;;;;;;128.82;123.25;;;10.30;98.80;;;;;;5027230;28;20036;-78
2023/01/07 00:28:07;;;;;;;128.68;123.05;;;10.20;98.80;;;;;;5027133;28;20044;-77
2023/01/07 00:30:32;;;;;;;126.78;121.22;;;10.20;98.90;;;;;;5028196;28;20022;-78
2023/01/07 00:33:05;;;;;;;128.82;123.20;;;10.20;98.90;;;;;;5027286;28;20129;-78
2023/01/07 00:35:35;;;;;;;130.02;124.32;;;10.20;98.90;;;;;;5028276;28;20140;-78
2023/01/07 00:38:03;;;;;;;128.15;122.55;;;10.20;98.90;;;;;;5026908;28;20087;-78
2023/01/07 00:40:31;;;;;;;126.93;121.35;;;10.20;98.80;;;;;;5028257;28;20039;-78
2023/01/07 00:43:00;;;;;;;128.13;122.53;;;10.20;98.80;;;;;;5028083;28;20021;-78
2023/01/07 00:45:28;;;;;;;129.52;123.82;;;10.30;98.70;;;;;;5010866;28;20113;-78
2023/01/07 00:47:56;;;;;;;132.05;126.30;;;10.20;98.70;;;;;;5028376;28;20020;-78
2023/01/07 00:50:23;;;;;;;130.15;124.45;;;10.20;98.70;;;;;;5026675;28;20497;-78
2023/01/07 00:52:49;;;;;;;133.15;127.38;;;10.20;98.90;;;;;;5026647;28;20052;-78
2023/01/07 00:55:15;;;;;;;131.65;125.95;;;10.20;98.70;;;;;;5010231;28;20494;-78
2023/01/07 00:57:41;;;;;;;131.75;126.00;;;10.30;98.70;;;;;;5027276;28;20565;-77
2023/01/07 01:00:09;;;;;;;133.48;127.65;;;10.20;98.70;;;;;;5026660;28;20041;-78
2023/01/07 01:02:35;;;;;;;129.40;123.72;;;10.30;98.70;;;;;;5026336;28;20036;-78
2023/01/07 01:05:01;;;;;;;131.52;125.80;;;10.30;98.70;;;;;;5009946;28;20030;-78
2023/01/07 01:07:27;;;;;;;132.82;127.03;;;10.30;98.70;;;;;;5027635;28;20035;-78
2023/01/07 01:09:52;;;;;;;131.25;125.53;;;10.30;98.80;;;;;;5028003;28;20026;-78
2023/01/07 01:12:18;;;;;;;134.20;128.30;;;10.20;98.80;;;;;;5027722;28;20299;-78
2023/01/07 01:14:44;;;;;;;132.13;126.32;;;10.20;98.90;;;;;;5027705;28;20037;-78
2023/01/07 01:17:10;;;;;;;135.45;129.63;;;10.20;98.90;;;;;;5026881;28;20038;-78
2023/01/07 01:19:35;;;;;;;132.57;126.78;;;10.20;98.90;;;;;;5010750;28;20041;-77
2023/01/07 01:22:01;;;;;;;134.85;129.00;;;10.20;99.00;;;;;;5026152;28;20041;-78
2023/01/07 01:24:27;;;;;;;134.23;128.38;;;10.30;99.00;;;;;;5026233;28;20021;-78
2023/01/07 01:26:53;;;;;;;132.57;126.78;;;10.30;98.90;;;;;;5026245;28;20401;-78
2023/01/07 01:29:18;;;;;;;135.40;129.50;;;10.30;98.80;;;;;;5026250;28;20535;-78
2023/01/07 01:31:44;;;;;;;136.60;130.60;;;10.40;98.80;;;;;;5026117;28;20040;-78
2023/01/07 01:34:10;;;;;;;134.52;128.65;;;10.40;98.70;;;;;;5027308;28;20045;-78
2023/01/07 01:36:36;;;;;;;133.60;127.80;;;10.40;98.60;;;;;;5026281;28;20038;-78
2023/01/07 01:39:02;;;;;;;133.68;127.88;;;10.40;98.60;;;;;;5026287;28;20029;-78
2023/01/07 01:41:27;;;;;;;134.23;128.35;;;10.40;98.60;;;;;;5026168;28;20041;-78
2023/01/07 01:43:53;;;;;;;135.77;129.88;;;10.30;98.60;;;;;;5025943;28;20470;-78
2023/01/07 01:46:35;;;;;;;137.32;131.32;;;10.30;98.60;;;;;;5027786;28;20034;-78
2023/01/07 01:49:04;;;;;;;134.88;128.98;;;10.30;98.60;;;;;;5027444;28;20026;-78
2023/01/07 01:51:33;;;;;;;136.13;130.15;;;10.30;98.70;;;;;;5027206;28;20060;-77
2023/01/07 01:54:02;;;;;;;131.48;125.72;;;10.20;98.70;;;;;;5027160;28;20017;-77
2023/01/07 01:56:33;;;;;;;135.55;129.65;;;10.20;98.70;;;;;;5025650;28;20109;-77
2023/01/07 01:59:26;;;;;;;133.63;127.82;;;10.10;98.80;;;;;;5025707;28;20041;-77
2023/01/07 02:01:52;;;;;;;131.60;125.90;;;10.20;98.80;;;;;;5024242;28;20037;-77
2023/01/07 02:04:21;;;;;;;131.43;125.72;;;10.20;98.80;;;;;;5025720;28;20083;-78
2023/01/07 02:07:02;;;;;;;131.32;125.65;;;10.10;98.70;;;;;;5025956;28;20084;-78
2023/01/07 02:09:28;;;;;;;130.20;124.60;;;10.10;98.70;;;;;;5026842;28;20025;-78
2023/01/07 02:12:16;;;;;;;128.27;122.78;;;10.10;98.70;;;;;;5013154;28;20482;-78
2023/01/07 02:14:59;;;;;;;128.65;123.15;;;10.10;98.70;;;;;;5031017;28;20428;-78
2023/01/07 02:17:43;;;;;;;131.75;126.10;;;10.10;98.70;;;;;;5029737;28;20032;-78
2023/01/07 02:20:27;;;;;;;128.77;123.28;;;10.10;98.70;;;;;;5030845;28;20436;-78
2023/01/07 02:22:56;;;;;;;129.93;124.32;;;10.10;98.70;;;;;;5029346;28;20389;-78
2023/01/07 02:25:40;;;;;;;130.85;125.25;;;10.10;98.70;;;;;;5029633;28;20022;-78
2023/01/07 02:28:41;;;;;;;128.48;122.97;;;10.10;98.70;;;;;;5030764;28;20017;-78
2023/01/07 02:31:25;;;;;;;129.90;124.30;;;10.10;98.70;;;;;;5030552;28;20025;-78
2023/01/07 02:34:12;;;;;;;131.23;125.63;;;10.10;98.70;;;;;;5030519;28;20033;-78
2023/01/07 02:36:57;;;;;;;131.85;126.18;;;10.10;98.80;;;;;;5030356;28;20029;-78
2023/01/07 02:39:48;;;;;;;130.50;124.93;;;10.00;98.80;;;;;;5030593;28;20021;-78
2023/01/07 02:42:30;;;;;;;129.27;123.75;;;10.10;98.80;;;;;;5029059;28;20026;-78
2023/01/07 02:45:01;;;;;;;129.60;124.07;;;10.10;98.80;;;;;;5030851;28;20021;-78
2023/01/07 02:47:36;;;;;;;128.63;123.13;;;10.10;98.80;;;;;;5029004;28;20501;-78
2023/01/07 02:50:05;;;;;;;125.57;120.28;;;10.10;98.80;;;;;;5028976;28;20025;-78
2023/01/07 02:52:32;;;;;;;127.07;121.68;;;10.10;98.80;;;;;;5031512;28;20390;-78
2023/01/07 02:55:10;;;;;;;129.18;123.70;;;10.10;98.70;;;;;;5033419;28;20096;-78
2023/01/07 02:57:54;;;;;;;129.68;124.18;;;10.10;98.70;;;;;;5030556;28;20065;-68
2023/01/07 03:00:38;;;;;;;132.75;127.15;;;10.10;98.80;;;;;;5028832;28;20061;-78
2023/01/07 03:03:16;;;;;;;131.32;125.78;;;10.00;98.70;;;;;;5028837;28;20535;-78
2023/01/07 03:05:57;;;;;;;127.65;122.25;;;10.00;98.70;;;;;;5030204;28;20022;-78
2023/01/07 03:08:48;;;;;;;128.40;123.00;;;10.00;98.70;;;;;;5028774;28;20029;-78
2023/01/07 03:11:15;;;;;;;130.25;124.75;;;10.00;98.70;;;;;;5028571;28;20022;-78
2023/01/07 03:13:47;;;;;;;128.68;123.28;;;10.00;98.70;;;;;;5012460;28;20442;-78
2023/01/07 03:16:28;;;;;;;128.77;123.32;;;9.90;98.60;;;;;;5029882;28;20025;-77
2023/01/07 03:19:08;;;;;;;130.23;124.72;;;9.90;98.70;;;;;;5029901;28;20034;-79
2023/01/07 03:21:36;;;;;;;128.27;122.88;;;9.80;98.80;;;;;;5027118;28;20068;-78
2023/01/07 03:24:01;;;;;;;130.88;125.38;;;9.70;98.80;;;;;;5028378;28;20048;-78
2023/01/07 03:26:34;;;;;;;131.50;125.90;;;9.80;98.80;;;;;;5028466;28;20485;-78
2023/01/07 03:29:03;;;;;;;131.50;125.93;;;9.80;98.90;;;;;;5028441;28;20030;-78
2023/01/07 03:31:29;;;;;;;130.82;125.32;;;9.80;98.90;;;;;;5028241;28;20108;-78
2023/01/07 03:34:09;;;;;;;124.93;119.63;;;9.80;98.90;;;;;;5029732;28;20033;-78
2023/01/07 03:36:41;;;;;;;125.25;120.03;;;9.80;98.90;;;;;;5028329;28;20026;-78
2023/01/07 03:39:12;;;;;;;131.32;125.82;;;9.80;98.80;;;;;;5029443;28;20072;-78
2023/01/07 03:44:23;;;;;;;126.93;121.63;;;9.90;98.80;;;;;;5028584;28;20111;-78
2023/01/07 03:46:49;;;;;;;123.28;118.15;;;9.90;98.80;;;;;;5028226;28;20470;-78
2023/01/07 03:49:15;;;;;;;123.35;118.25;;;9.80;98.80;;;;;;5027962;28;20490;-78
2023/01/07 03:51:41;;;;;;;120.95;115.95;;;9.80;98.80;;;;;;5027933;28;20029;-78
2023/01/07 03:54:07;;;;;;;120.63;115.63;;;9.80;98.90;;;;;;5011658;28;20049;-78
2023/01/07 03:56:32;;;;;;;118.45;113.55;;;9.80;98.90;;;;;;5027860;28;20383;-78
2023/01/07 03:58:58;;;;;;;123.65;118.55;;;9.80;98.90;;;;;;5028279;28;20105;-78
2023/01/07 04:01:26;;;;;;;120.40;115.40;;;9.80;98.90;;;;;;5011358;28;20124;-78
2023/01/07 04:03:52;;;;;;;113.55;108.85;;;9.80;98.90;;;;;;5028923;28;20116;-77
2023/01/07 04:06:18;;;;;;;114.38;109.68;;;9.80;98.80;;;;;;5027791;28;20553;-77
2023/01/07 04:08:43;;;;;;;117.03;112.22;;;9.80;98.80;;;;;;5027739;28;20060;-77
2023/01/07 04:11:09;;;;;;;113.57;108.90;;;9.80;98.70;;;;;;5027466;28;20030;-77
2023/01/07 04:13:35;;;;;;;114.82;110.13;;;9.80;98.70;;;;;;5028914;28;20033;-77
2023/01/07 04:16:00;;;;;;;117.72;112.93;;;9.80;98.60;;;;;;4994848;28;20025;-77
2023/01/07 04:18:26;;;;;;;116.65;111.85;;;9.70;98.50;;;;;;5027637;28;20033;-77
2023/01/07 04:20:52;;;;;;;110.88;106.38;;;9.70;98.80;;;;;;5027374;28;20386;-77
2023/01/07 04:23:17;;;;;;;113.22;108.63;;;9.60;98.60;;;;;;5029097;28;20049;-77
2023/01/07 04:25:46;;;;;;;112.68;108.07;;;9.50;98.50;;;;;;5027585;28;20432;-77
2023/01/07 04:28:11;;;;;;;107.70;103.30;;;9.40;98.50;;;;;;5028763;28;20490;-77
2023/01/07 04:30:37;;;;;;;106.95;102.57;;;9.30;98.60;;;;;;5028621;28;20026;-78
2023/01/07 04:33:04;;;;;;;107.40;103.00;;;9.30;98.60;;;;;;5026958;28;20406;-78
2023/01/07 04:35:31;;;;;;;108.70;104.30;;;9.20;98.60;;;;;;5027388;28;20485;-77
2023/01/07 04:37:56;;;;;;;109.70;105.20;;;9.20;98.60;;;;;;5028400;28;20025;-78
2023/01/07 04:40:22;;;;;;;112.65;108.05;;;9.10;98.60;;;;;;5026971;28;20500;-77
2023/01/07 04:42:48;;;;;;;110.93;106.40;;;9.10;98.80;;;;;;5010614;28;20033;-77
2023/01/07 04:45:14;;;;;;;111.10;106.60;;;9.10;98.80;;;;;;5027104;28;20075;-77
2023/01/07 04:47:39;;;;;;;108.75;104.35;;;9.10;98.90;;;;;;5028398;28;20056;-77
2023/01/07 04:50:05;;;;;;;107.45;103.05;;;9.10;98.90;;;;;;5026924;28;20021;-77
2023/01/07 04:52:31;;;;;;;106.78;102.45;;;9.20;98.90;;;;;;5010226;28;20512;-78
2023/01/07 04:54:57;;;;;;;107.85;103.45;;;9.30;98.80;;;;;;5026910;28;20037;-77
2023/01/07 04:57:23;;;;;;;111.97;107.38;;;9.30;98.80;;;;;;5027816;28;20049;-77
2023/01/07 04:59:48;;;;;;;106.40;102.03;;;9.40;98.80;;;;;;5026739;28;20533;-77
2023/01/07 05:02:14;;;;;;;107.03;102.63;;;9.40;98.80;;;;;;5026588;28;20041;-77
2023/01/07 05:04:40;;;;;;;113.18;108.57;;;9.50;98.70;;;;;;5026499;28;20088;-77
2023/01/07 05:07:05;;;;;;;112.80;108.20;;;9.40;98.60;;;;;;5026659;28;20037;-77
2023/01/07 05:09:31;;;;;;;108.72;104.28;;;9.40;98.70;;;;;;5010187;28;20046;-77
2023/01/07 05:11:57;;;;;;;109.40;104.90;;;9.30;99.00;;;;;;5010193;28;20030;-78
2023/01/07 05:14:23;;;;;;;105.97;101.68;;;9.30;98.70;;;;;;5010087;28;20033;-78
2023/01/07 05:16:48;;;;;;;107.30;102.90;;;9.30;98.70;;;;;;5026377;28;20033;-77
2023/01/07 05:19:14;;;;;;;109.00;104.50;;;9.30;98.70;;;;;;5027761;28;20072;-77
2023/01/07 05:21:39;;;;;;;106.45;102.05;;;9.20;98.80;;;;;;5027512;28;20409;-77
2023/01/07 05:24:05;;;;;;;105.20;100.90;;;9.30;98.90;;;;;;5026428;28;20056;-77
2023/01/07 05:26:31;;;;;;;109.93;105.43;;;9.30;98.90;;;;;;5010000;28;20053;-77
2023/01/07 05:28:57;;;;;;;107.60;103.20;;;9.30;98.90;;;;;;5027618;28;20105;-77
2023/01/07 05:31:22;;;;;;;109.00;104.50;;;9.40;98.90;;;;;;5009847;28;20036;-77
2023/01/07 05:33:48;;;;;;;109.78;105.30;;;9.40;98.80;;;;;;5026327;28;20037;-78
2023/01/07 05:36:14;;;;;;;107.45;103.05;;;9.40;98.80;;;;;;5026238;28;20178;-78
2023/01/07 05:38:39;;;;;;;107.72;103.32;;;9.40;98.90;;;;;;5026176;28;20556;-78
2023/01/07 05:41:05;;;;;;;107.15;102.75;;;9.40;98.80;;;;;;5025873;28;20056;-78
2023/01/07 05:43:31;;;;;;;107.93;103.53;;;9.40;98.80;;;;;;5027477;28;20442;-78
2023/01/07 05:45:57;;;;;;;108.95;104.53;;;9.30;98.80;;;;;;5029948;28;20485;-78
2023/01/07 05:48:23;;;;;;;108.10;103.70;;;9.30;98.80;;;;;;5031475;28;20026;-78
2023/01/07 05:50:49;;;;;;;113.30;108.70;;;9.20;98.80;;;;;;5030043;28;20120;-69
2023/01/07 05:53:15;;;;;;;113.63;109.03;;;9.20;98.80;;;;;;5031520;28;20029;-78
2023/01/07 05:55:40;;;;;;;109.25;104.80;;;9.20;98.90;;;;;;5013770;28;20029;-78
2023/01/07 05:58:07;;;;;;;110.97;106.47;;;9.20;98.80;;;;;;5030051;28;20383;-77
2023/01/07 06:00:33;;;;;;;107.00;102.70;;;9.20;98.90;;;;;;5031083;28;20033;-77
2023/01/07 06:02:59;;;;;;;105.95;101.65;;;9.20;98.90;;;;;;5013789;28;20029;-77
2023/01/07 06:05:25;;;;;;;99.65;95.65;;;9.20;98.90;;;;;;5015628;28;20030;-78
2023/01/07 06:07:51;;;;;;;100.57;96.57;;;9.20;99.10;;;;;;5031214;28;20100;-78
2023/01/07 06:10:16;;;;;;;96.22;92.43;;;9.30;99.00;;;;;;5013738;28;20549;-78
2023/01/07 06:12:42;;;;;;;94.50;90.75;;;9.30;98.90;;;;;;5029879;28;20041;-78
2023/01/07 06:15:08;;;;;;;89.10;85.60;;;9.30;98.90;;;;;;5031318;28;20409;-78
2023/01/07 06:17:34;;;;;;;83.72;80.43;;;9.40;98.90;;;;;;5013163;28;20064;-78
2023/01/07 06:20:00;;;;;;;79.88;76.78;;;9.40;98.90;;;;;;5029734;28;20069;-78
2023/01/07 06:22:26;;;;;;;83.63;80.32;;;9.40;98.90;;;;;;5030686;28;20029;-78
2023/01/07 06:24:52;;;;;;;82.13;78.93;;;9.40;98.90;;;;;;5030873;28;20066;-78
2023/01/07 06:27:17;;;;;;;80.63;77.53;;;9.40;98.80;;;;;;5029463;28;20042;-78
2023/01/07 06:29:43;;;;;;;79.80;76.70;;;9.40;98.80;;;;;;5030724;28;20043;-78
2023/01/07 06:32:09;;;;;;;73.60;70.75;;;9.40;98.80;;;;;;5030581;28;20048;-78
2023/01/07 06:34:34;;;;;;;75.55;72.65;;;9.40;98.80;;;;;;5029541;28;20034;-78
2023/01/07 06:37:00;;;;;;;73.03;70.22;;;9.40;98.70;;;;;;5030731;28;20053;-78
2023/01/07 06:39:26;;;;;;;71.70;68.97;;;9.30;98.70;;;;;;5012937;28;20506;-77
2023/01/07 06:41:52;;;;;;;73.80;70.97;;;9.30;98.70;;;;;;5030519;28;20129;-78
2023/01/07 06:44:17;;;;;;;72.45;69.65;;;9.20;98.70;;;;;;5030591;28;20127;-78
2023/01/07 06:46:43;;;;;;;74.68;71.80;;;9.10;98.70;;;;;;5012828;28;20119;-78
2023/01/07 06:49:09;;;;;;;73.63;70.82;;;9.10;98.70;;;;;;5029296;28;20037;-78
2023/01/07 06:51:34;;;;;;;75.53;72.63;;;9.00;98.70;;;;;;5030520;28;20415;-78
2023/01/07 06:54:00;;;;;;;75.68;72.78;;;8.90;98.70;;;;;;5029266;28;20053;-78
2023/01/07 06:56:26;;;;;;;76.00;73.10;;;8.80;98.70;;;;;;5029958;28;20049;-78
2023/01/07 06:58:52;;;;;;;73.43;70.63;;;8.80;98.70;;;;;;5029022;28;20037;-77
2023/01/07 07:01:18;;;;;;;72.85;70.05;;;8.70;98.70;;;;;;5030126;28;20056;-77
2023/01/07 07:03:43;;;;;;;74.97;72.07;;;8.70;98.70;;;;;;5030104;28;20506;-78
2023/01/07 07:06:10;;;;;;;73.57;70.78;;;8.60;98.70;;;;;;5030278;28;20030;-77
2023/01/07 07:08:35;;;;;;;74.43;71.53;;;8.60;98.70;;;;;;5029010;28;20030;-78
2023/01/07 07:11:01;;;;;;;75.97;73.07;;;8.50;98.70;;;;;;5028797;28;20072;-78
2023/01/07 07:13:27;;;;;;;78.03;75.03;;;8.50;98.70;;;;;;5028762;28;20494;-78
2023/01/07 07:15:52;;;;;;;76.75;73.75;;;8.40;98.70;;;;;;5030214;28;20188;-78
2023/01/07 07:18:18;;;;;;;78.93;75.82;;;8.40;98.70;;;;;;5012253;28;20136;-78
2023/01/07 07:20:47;;;;;;;79.85;76.75;;;8.40;98.70;;;;;;5028675;28;20385;-78
2023/01/07 07:23:13;;;;;;;79.75;76.65;;;8.40;98.70;;;;;;5028551;28;20044;-77
2023/01/07 07:25:39;;;;;;;77.30;74.30;;;8.30;98.70;;;;;;5028619;28;20048;-78
2023/01/07 07:28:04;;;;;;;79.80;76.70;;;8.30;98.70;;;;;;4995768;28;20501;-77
2023/01/07 07:30:30;;;;;;;79.53;76.43;;;8.20;98.70;;;;;;5011641;28;20124;-77
2023/01/07 07:33:01;;;;;;;80.70;77.55;;;8.20;98.70;;;;;;5028224;28;20041;-77
2023/01/07 07:35:27;;;;;;;79.93;76.82;;;8.10;98.70;;;;;;5028260;28;20116;-78
2023/01/07 07:37:53;;;;;;;80.25;77.15;;;8.10;98.70;;;;;;5028734;28;20121;-77
2023/01/07 07:40:18;;;;;;;79.05;75.95;;;8.00;98.70;;;;;;5013391;28;20484;-77
2023/01/07 07:42:44;;;;;;;85.85;82.55;;;8.00;98.70;;;;;;5029387;28;20033;-78
2023/01/07 07:45:10;;;;;;;86.88;83.47;;;7.90;98.70;;;;;;5028218;28;20045;-77
2023/01/07 07:47:36;;;;;;;83.80;80.55;;;7.90;98.70;;;;;;5028270;28;20037;-77
2023/01/07 07:50:02;;;;;;;82.82;79.63;;;7.80;98.70;;;;;;5028147;28;20036;-77
2023/01/07 07:52:28;;;;;;;85.82;82.53;;;7.80;98.70;;;;;;5029236;28;20437;-78
2023/01/07 07:54:54;;;;;;;85.25;81.95;;;7.80;98.70;;;;;;5011941;28;20125;-78
2023/01/07 07:57:19;;;;;;;84.78;81.47;;;7.80;98.80;;;;;;5027793;28;20535;-78
2023/01/07 07:59:45;;;;;;;85.32;82.03;;;7.80;98.80;;;;;;5029174;28;20143;-77
2023/01/07 08:02:14;;;;;;;88.28;84.88;;;7.70;98.70;;;;;;5011428;28;20033;-77
2023/01/07 08:04:40;;;;;;;87.03;83.53;;;7.70;98.70;;;;;;5028950;28;20471;-77
2023/01/07 08:07:06;;;;;;;85.85;82.53;;;7.70;98.70;;;;;;5027008;28;20175;-77
2023/01/07 08:09:32;;;;;;;85.38;82.07;;;7.70;98.70;;;;;;5029061;28;20062;-78
2023/01/07 08:11:58;;;;;;;84.13;80.93;;;7.60;98.70;;;;;;5027679;28;20471;-78
2023/01/07 08:14:23;;;;;;;79.78;76.68;;;7.60;98.70;;;;;;5027609;28;20043;-78
2023/01/07 08:16:49;;;;;;;81.03;77.93;;;7.60;98.80;;;;;;5011015;28;20038;-78
2023/01/07 08:19:15;;;;;;;77.30;74.30;;;7.60;98.80;;;;;;5010977;28;20088;-78
2023/01/07 08:21:40;;;;;;;75.43;72.53;;;7.50;98.70;;;;;;5010888;28;20061;-78
2023/01/07 08:24:06;;;;;;;75.57;72.68;;;7.50;98.70;;;;;;5027422;28;20037;-78
2023/01/07 08:26:32;;;;;;;72.03;69.25;;;7.50;98.70;;;;;;5027306;28;20029;-78
2023/01/07 08:28:58;;;;;;;70.32;67.63;;;7.50;98.70;;;;;;5010551;28;20037;-78
2023/01/07 08:31:23;;;;;;;66.90;64.30;;;7.50;98.70;;;;;;5027077;28;20033;-78
2023/01/07 08:33:49;;;;;;;68.10;65.50;;;7.50;98.80;;;;;;5027141;28;20037;-77
2023/01/07 08:36:15;;;;;;;65.63;63.13;;;7.50;98.80;;;;;;5028400;28;20061;-77
2023/01/07 08:38:41;;;;;;;62.47;60.08;;;7.50;98.80;;;;;;5027229;28;20484;-78
2023/01/07 08:41:06;;;;;;;59.10;56.80;;;7.50;98.80;;;;;;5028188;28;20038;-78
2023/01/07 08:43:32;;;;;;;56.85;54.65;;;7.50;98.80;;;;;;4994237;28;20029;-78
2023/01/07 08:45:58;;;;;;;57.78;55.50;;;7.60;98.90;;;;;;5027077;28;20033;-78
2023/01/07 08:48:24;;;;;;;55.75;53.55;;;7.60;98.90;;;;;;5026923;28;20400;-78
2023/01/07 08:50:51;;;;;;;56.35;54.15;;;7.60;98.90;;;;;;5026764;28;20037;-77
2023/01/07 08:53:21;;;;;;;57.38;55.08;;;7.60;98.90;;;;;;5027885;28;20049;-78
2023/01/07 08:55:47;;;;;;;57.22;54.92;;;7.60;98.80;;;;;;5026401;28;20082;-77
2023/01/07 08:58:13;;;;;;;58.53;56.22;;;7.60;98.80;;;;;;5009543;28;20563;-78
2023/01/07 09:00:40;;;;;;;56.55;54.33;;;7.70;98.90;;;;;;5028044;28;20041;-77
2023/01/07 09:03:06;;;;;;;55.08;52.88;;;7.70;98.90;;;;;;5027895;28;20033;-78
2023/01/07 09:05:31;;;;;;;54.80;52.60;;;7.70;98.90;;;;;;5027620;28;20144;-77
2023/01/07 09:07:57;;;;;;;49.40;47.50;;;7.70;98.80;;;;;;5027503;28;20398;-77
2023/01/07 09:10:23;;;;;;;45.63;43.83;;;7.80;98.80;;;;;;5026327;28;20055;-78
2023/01/07 09:12:49;;;;;;;;;;;7.80;98.90;;;;;;5029898;28;20033;-78
2023/01/07 09:15:15;;;;;;;36.25;34.85;;;7.80;98.90;;;;;;5029574;28;19916;-78
2023/01/07 09:17:41;;;;;;;25.25;24.25;;;7.90;99.10;;;;;;5027911;28;20037;-78
2023/01/07 09:20:07;;;;;;;25.00;24.00;;;8.10;99.30;;;;;;5009859;28;20033;-78
2023/01/07 09:22:35;;;;;;;22.20;21.30;;;8.30;99.40;;;;;;5026216;28;20451;-78
2023/01/07 09:25:01;;;;;;;18.98;18.17;;;8.40;99.40;;;;;;5027493;28;20485;-79
2023/01/07 09:27:26;;;;;;;17.65;16.95;;;8.60;99.50;;;;;;5027880;28;20439;-77
2023/01/07 09:29:53;;;;;;;16.40;15.70;;;8.80;99.50;;;;;;5025968;28;20036;-78
2023/01/07 09:32:20;;;;;;;17.30;16.60;;;9.10;99.50;;;;;;5026026;28;20061;-78
2023/01/07 09:34:46;;;;;;;17.52;16.83;;;9.10;99.30;;;;;;5025866;28;20021;-78
2023/01/07 09:37:11;;;;;;;16.15;15.45;;;9.20;99.30;;;;;;5009251;28;20086;-77
2023/01/07 09:39:37;;;;;;;13.55;12.95;;;9.30;99.30;;;;;;5026223;28;20461;-78
2023/01/07 09:42:05;;;;;;;13.60;13.00;;;9.40;99.40;;;;;;5025734;28;20083;-78
2023/01/07 09:44:52;;;;;;;11.35;10.85;;;9.60;99.50;;;;;;5025642;28;20073;-79
2023/01/07 09:47:20;;;;;;;10.75;10.25;;;9.80;99.60;;;;;;5027329;28;20109;-78
2023/01/07 09:49:51;;;;;;;8.88;8.48;;;10.00;99.50;;;;;;5027934;28;20486;-79
2023/01/07 09:52:32;;;;;;;8.00;7.60;;;10.10;99.40;;;;;;5029549;28;20025;-79
2023/01/07 09:55:12;;;;;;;7.38;6.97;;;10.20;99.50;;;;;;5029221;28;20088;-79
2023/01/07 09:57:38;;;;;;;6.70;6.30;;;10.30;99.50;;;;;;5029526;28;20041;-79
2023/01/07 10:00:17;;;;;;;6.70;6.30;;;10.40;99.40;;;;;;5029146;28;20032;-79
2023/01/07 10:03:09;;;;;;;7.13;6.50;;;10.50;99.50;;;;;;5028816;28;20061;-78
2023/01/07 10:05:40;;;;;;;4.97;4.68;;;10.70;99.80;;;;;;5029308;28;20413;-79
2023/01/07 10:08:47;;;;;;;4.90;4.60;;;11.00;99.90;;;;;;5029369;28;20017;-78
2023/01/07 10:11:25;;;;;;;4.38;4.07;;;11.10;99.70;;;;;;4968080;28;20031;-79
2023/01/07 10:14:05;;;;;;;3.50;3.20;;;11.40;99.90;;;;;;5021082;28;20553;-78
2023/01/07 10:16:52;;;;;;;2.83;2.63;;;11.90;99.90;;;;;;5027921;28;20120;-78
2023/01/07 10:19:18;;;;;;;2.20;2.00;;;12.30;99.90;;;;;;5027878;28;20060;-81
2023/01/07 10:21:49;;;;;;;2.20;2.00;;;12.70;99.90;;;;;;5027280;28;20057;-79
2023/01/07 10:24:35;;;;;;;1.90;1.80;;;12.90;99.90;;;;;;5042149;28;20159;-81
2023/01/07 10:27:08;;;;;;;1.27;1.17;;;13.20;99.90;;;;;;5040405;28;20466;-78
2023/01/07 10:29:44;;;;;;;0.70;0.70;;;13.50;99.90;;;;;;5048573;28;20409;-80
2023/01/07 10:32:19;;;;;;;0.70;0.70;;;13.60;99.40;;;;;;5047962;28;20017;-79
2023/01/07 10:34:48;;;;;;;1.90;1.80;;;13.30;98.80;;;;;;5044285;28;20029;-79
2023/01/07 10:37:22;;;;;;;3.85;3.55;;;12.80;98.50;;;;;;5049614;28;20033;-70
2023/01/07 10:40:18;;;;;;;15.88;15.18;;;12.30;98.40;;;;;;5038202;28;20116;-79
2023/01/07 10:42:56;;;;;;;54.35;52.35;;;11.60;98.00;;;;;;5051188;28;20363;-80
2023/01/07 10:45:31;;;;;;;56.28;54.17;;;10.90;98.00;;;;;;5051545;28;20041;-79
2023/01/07 10:48:16;;;;;;;55.38;53.38;;;10.40;98.20;;;;;;5031083;28;20033;-81
2023/01/07 10:51:11;;;;;;;55.15;53.15;;;10.00;98.50;;;;;;5032381;28;20101;-80
2023/01/07 10:53:52;;;;;;;43.30;41.70;;;9.70;98.80;;;;;;5030903;28;20590;-79
2023/01/07 10:56:36;;;;;;;32.80;31.60;;;9.60;99.00;;;;;;5043610;28;20056;-80
2023/01/07 10:59:02;;;;;;;33.63;32.33;;;9.50;99.00;;;;;;5035479;28;20025;-79
2023/01/07 11:01:35;;;;;;;33.58;32.28;;;9.40;99.10;;;;;;5049017;28;20646;-78
2023/01/07 11:04:03;;;;;;;30.80;29.60;;;9.50;99.20;;;;;;5050656;28;20029;-79
2023/01/07 11:06:33;;;;;;;30.23;29.05;;;9.50;99.20;;;;;;5052492;28;20021;-79
2023/01/07 11:09:03;;;;;;;22.27;21.38;;;9.70;99.40;;;;;;5051371;28;20462;-79
2023/01/07 11:11:32;;;;;;;20.20;19.40;;;10.00;99.90;;;;;;5052382;28;20032;-81
2023/01/07 11:14:05;;;;;;;16.75;16.05;;;10.40;99.80;;;;;;5051601;28;20025;-80
2023/01/07 11:16:40;;;;;;;12.70;12.10;;;11.10;99.90;;;;;;5053358;28;20491;-82
2023/01/07 11:19:09;;;;;;;10.88;10.38;;;11.70;99.90;;;;;;5052317;28;20033;-79
2023/01/07 11:21:38;;;;;;;11.35;10.85;;;12.10;99.50;;;;;;5052405;28;20021;-79
2023/01/07 11:24:25;;;;;;;12.02;11.52;;;12.10;98.80;;;;;;5051416;28;20025;-77
2023/01/07 11:26:57;;;;;;;13.27;12.68;;;11.70;98.30;;;;;;5051944;28;20043;-76
2023/01/07 11:29:26;;;;;;;11.18;10.68;;;11.40;98.50;;;;;;5051579;28;20088;-79
2023/01/07 11:32:04;;;;;;;12.68;12.07;;;11.30;99.00;;;;;;5050604;28;20019;-76
2023/01/07 11:34:29;;;;;;;13.65;13.05;;;11.30;99.00;;;;;;5049447;28;20033;-78
2023/01/07 11:36:55;;;;;;;15.75;15.05;;;11.10;98.70;;;;;;5049788;28;20029;-78
2023/01/07 11:39:29;;;;;;;13.32;12.73;;;11.00;98.70;;;;;;5051471;28;20124;-78
2023/01/07 11:45:08;;;;;;;5.68;5.38;;;11.10;99.80;;;;;;5050384;28;20121;-75
2023/01/07 11:47:36;;;;;;;3.45;3.15;;;12.10;99.90;;;;;;5051061;28;20021;-76
2023/01/07 11:50:02;;;;;;;2.45;2.25;;;12.80;99.90;;;;;;5050627;28;20074;-78
2023/01/07 11:52:28;;;;;;;2.22;2.03;;;13.40;99.90;;;;;;5032598;28;20124;-77
2023/01/07 11:54:53;;;;;;;1.60;1.50;;;13.80;99.90;;;;;;5048907;28;20033;-76
2023/01/07 11:57:25;;;;;;;1.63;1.52;;;14.00;99.60;;;;;;5049058;28;20072;-74
2023/01/07 12:00:15;;;;;;;1.42;1.33;;;14.10;99.50;;;;;;5049328;28;20115;-77
2023/01/07 12:02:40;;;;;;;1.15;1.10;;;14.10;99.50;;;;;;5049999;28;20052;-77
2023/01/07 12:05:25;;;;;;;0.70;0.70;;;14.30;99.50;;;;;;5015368;28;20029;-75
2023/01/07 12:07:51;;;;;;;0.52;0.52;;;14.30;99.50;;;;;;5046857;28;20030;-75
2023/01/07 12:10:37;;;;;;;0.40;0.40;;;14.30;99.50;;;;;;5037623;28;20082;-73
2023/01/07 12:13:06;;;;;;;;;;;14.40;99.80;;;;;;5042155;28;20041;-74
2023/01/07 12:15:38;;;;;;;;;;;14.50;99.70;;;;;;5033095;28;19924;-75
2023/01/07 12:18:07;;;;;;;0.20;0.20;;;14.60;99.70;;;;;;5030003;28;19909;-75
2023/01/07 12:20:40;;;;;;;0.20;0.20;;;14.70;99.80;;;;;;5029876;28;20040;-76
2023/01/07 12:23:46;;;;;;;0.20;0.20;;;14.80;99.80;;;;;;5029205;28;20151;-74
2023/01/07 12:26:21;;;;;;;0.20;0.20;;;14.80;99.60;;;;;;5029266;28;20021;-75
2023/01/07 12:29:05;;;;;;;0.20;0.20;;;14.70;99.50;;;;;;5029912;28;20045;-76
2023/01/07 12:31:47;;;;;;;0.20;0.20;;;14.50;99.50;;;;;;5029190;28;20021;-76
2023/01/07 12:34:15;;;;;;;0.00;0.00;;;14.40;99.50;;;;;;5043313;28;20045;-75
2023/01/07 12:36:48;;;;;;;0.20;0.20;;;14.20;99.00;;;;;;5048335;28;20021;-75
2023/01/07 12:39:43;;;;;;;0.30;0.30;;;13.70;98.60;;;;;;5050202;28;20060;-75
2023/01/07 12:42:19;;;;;;;0.32;0.32;;;13.00;98.50;;;;;;5047741;28;20119;-74
2023/01/07 12:44:52;;;;;;;0.43;0.43;;;12.50;98.50;;;;;;5049247;28;20039;-72